sensor_id;sensor_type;location;lat;lon;timestamp;temperature;humidity
23703;DHT22;12030;50.376;8.762;2022-10-15T00:00:27;14.90;99.90
23703;DHT22;12030;50.376;8.762;2022-10-15T00:02:52;14.90;99.90
23703;DHT22;12030;50.376;8.762;2022-10-15T00:05:19;15.00;99.90
23703;DHT22;12030;50.376;8.762;2022-10-15T00:07:44;14.90;99.90
23703;DHT22;12030;50.376;8.762;2022-10-15T00:10:10;14.90;99.90
23703;DHT22;12030;50.376;8.762;2022-10-15T00:12:35;14.90;99.90
23703;DHT22;12030;50.376;8.762;2022-10-15T00:15:01;14.90;99.90
23703;DHT22;12030;50.376;8.762;2022-10-15T00:17:27;14.90;99.90
23703;DHT22;12030;50.376;8.762;2022-10-15T00:19:53;14.90;99.90
23703;DHT22;12030;50.376;8.762;2022-10-15T00:22:18;14.90;99.90
23703;DHT22;12030;50.376;8.762;2022-10-15T00:24:44;14.90;99.90
23703;DHT22;12030;50.376;8.762;2022-10-15T00:27:09;14.90;99.90
23703;DHT22;12030;50.376;8.762;2022-10-15T00:29:35;14.90;99.90
23703;DHT22;12030;50.376;8.762;2022-10-15T00:32:00;14.90;99.90
23703;DHT22;12030;50.376;8.762;2022-10-15T00:34:26;14.90;99.90
23703;DHT22;12030;50.376;8.762;2022-10-15T00:36:52;14.90;99.90
23703;DHT22;12030;50.376;8.762;2022-10-15T00:39:17;15.00;99.90
23703;DHT22;12030;50.376;8.762;2022-10-15T00:41:44;15.00;99.90
23703;DHT22;12030;50.376;8.762;2022-10-15T00:49:31;14.90;99.90
23703;DHT22;12030;50.376;8.762;2022-10-15T00:52:18;14.90;99.90
23703;DHT22;12030;50.376;8.762;2022-10-15T00:54:50;15.00;99.90
23703;DHT22;12030;50.376;8.762;2022-10-15T00:57:17;15.00;99.90
23703;DHT22;12030;50.376;8.762;2022-10-15T00:59:48;15.00;99.90
23703;DHT22;12030;50.376;8.762;2022-10-15T01:02:17;15.00;99.90
23703;DHT22;12030;50.376;8.762;2022-10-15T01:04:43;15.00;99.90
23703;DHT22;12030;50.376;8.762;2022-10-15T01:07:09;15.00;99.90
23703;DHT22;12030;50.376;8.762;2022-10-15T01:09:34;15.00;99.90
23703;DHT22;12030;50.376;8.762;2022-10-15T01:12:01;15.00;99.90
23703;DHT22;12030;50.376;8.762;2022-10-15T01:28:50;15.00;99.90
23703;DHT22;12030;50.376;8.762;2022-10-15T01:31:28;15.00;99.90
23703;DHT22;12030;50.376;8.762;2022-10-15T01:34:55;15.00;99.90
23703;DHT22;12030;50.376;8.762;2022-10-15T01:39:58;15.00;99.90
23703;DHT22;12030;50.376;8.762;2022-10-15T01:42:39;15.00;99.90
23703;DHT22;12030;50.376;8.762;2022-10-15T01:45:10;15.00;99.90
23703;DHT22;12030;50.376;8.762;2022-10-15T01:47:47;15.00;99.90
23703;DHT22;12030;50.376;8.762;2022-10-15T01:50:15;15.00;99.90
23703;DHT22;12030;50.376;8.762;2022-10-15T01:52:42;15.00;99.90
23703;DHT22;12030;50.376;8.762;2022-10-15T01:55:11;15.00;99.90
23703;DHT22;12030;50.376;8.762;2022-10-15T01:57:40;15.00;99.90
23703;DHT22;12030;50.376;8.762;2022-10-15T02:00:07;15.00;99.90
23703;DHT22;12030;50.376;8.762;2022-10-15T02:02:33;15.00;99.90
23703;DHT22;12030;50.376;8.762;2022-10-15T02:04:58;15.00;99.90
23703;DHT22;12030;50.376;8.762;2022-10-15T02:15:35;15.00;99.90
23703;DHT22;12030;50.376;8.762;2022-10-15T02:21:05;15.00;99.90
23703;DHT22;12030;50.376;8.762;2022-10-15T02:23:37;15.10;99.90
23703;DHT22;12030;50.376;8.762;2022-10-15T02:26:07;15.00;99.90
23703;DHT22;12030;50.376;8.762;2022-10-15T02:28:36;15.00;99.90
23703;DHT22;12030;50.376;8.762;2022-10-15T02:31:02;15.00;99.90
23703;DHT22;12030;50.376;8.762;2022-10-15T02:33:31;15.00;99.90
23703;DHT22;12030;50.376;8.762;2022-10-15T02:35:58;15.00;99.90
23703;DHT22;12030;50.376;8.762;2022-10-15T02:38:25;15.00;99.90
23703;DHT22;12030;50.376;8.762;2022-10-15T02:40:52;15.00;99.90
23703;DHT22;12030;50.376;8.762;2022-10-15T02:43:20;14.90;99.90
23703;DHT22;12030;50.376;8.762;2022-10-15T02:45:47;15.00;99.90
23703;DHT22;12030;50.376;8.762;2022-10-15T02:48:12;14.90;99.90
23703;DHT22;12030;50.376;8.762;2022-10-15T02:50:38;14.90;99.90
23703;DHT22;12030;50.376;8.762;2022-10-15T02:53:04;14.90;99.90
23703;DHT22;12030;50.376;8.762;2022-10-15T02:55:30;14.90;99.90
23703;DHT22;12030;50.376;8.762;2022-10-15T02:57:55;14.90;99.90
23703;DHT22;12030;50.376;8.762;2022-10-15T03:00:21;14.90;99.90
23703;DHT22;12030;50.376;8.762;2022-10-15T03:02:46;14.90;99.90
23703;DHT22;12030;50.376;8.762;2022-10-15T03:05:12;14.90;99.90
23703;DHT22;12030;50.376;8.762;2022-10-15T03:07:38;14.90;99.90
23703;DHT22;12030;50.376;8.762;2022-10-15T03:10:04;14.90;99.90
23703;DHT22;12030;50.376;8.762;2022-10-15T03:12:29;14.90;99.90
23703;DHT22;12030;50.376;8.762;2022-10-15T03:14:55;14.90;99.90
23703;DHT22;12030;50.376;8.762;2022-10-15T03:17:20;14.90;99.90
23703;DHT22;12030;50.376;8.762;2022-10-15T03:19:46;14.90;99.90
23703;DHT22;12030;50.376;8.762;2022-10-15T03:22:12;14.90;99.90
23703;DHT22;12030;50.376;8.762;2022-10-15T03:24:37;14.90;99.90
23703;DHT22;12030;50.376;8.762;2022-10-15T03:27:03;14.90;99.90
23703;DHT22;12030;50.376;8.762;2022-10-15T03:29:28;14.90;99.90
23703;DHT22;12030;50.376;8.762;2022-10-15T03:31:54;15.00;99.90
23703;DHT22;12030;50.376;8.762;2022-10-15T03:34:19;15.00;99.90
23703;DHT22;12030;50.376;8.762;2022-10-15T03:36:45;15.00;99.90
23703;DHT22;12030;50.376;8.762;2022-10-15T03:39:11;15.00;99.90
23703;DHT22;12030;50.376;8.762;2022-10-15T03:41:37;15.00;99.90
23703;DHT22;12030;50.376;8.762;2022-10-15T03:44:04;15.00;99.90
23703;DHT22;12030;50.376;8.762;2022-10-15T03:46:31;15.00;99.90
23703;DHT22;12030;50.376;8.762;2022-10-15T03:48:56;15.00;99.90
23703;DHT22;12030;50.376;8.762;2022-10-15T03:51:22;14.90;99.90
23703;DHT22;12030;50.376;8.762;2022-10-15T03:53:48;15.00;99.90
23703;DHT22;12030;50.376;8.762;2022-10-15T03:56:13;15.00;99.90
23703;DHT22;12030;50.376;8.762;2022-10-15T03:58:39;15.00;99.90
23703;DHT22;12030;50.376;8.762;2022-10-15T04:01:13;15.00;99.90
23703;DHT22;12030;50.376;8.762;2022-10-15T04:03:39;15.00;99.90
23703;DHT22;12030;50.376;8.762;2022-10-15T04:06:05;15.00;99.90
23703;DHT22;12030;50.376;8.762;2022-10-15T04:08:31;15.00;99.90
23703;DHT22;12030;50.376;8.762;2022-10-15T04:10:57;15.00;99.90
23703;DHT22;12030;50.376;8.762;2022-10-15T04:13:24;15.00;99.90
23703;DHT22;12030;50.376;8.762;2022-10-15T04:15:49;15.00;99.90
23703;DHT22;12030;50.376;8.762;2022-10-15T04:18:15;15.00;99.90
23703;DHT22;12030;50.376;8.762;2022-10-15T04:20:41;15.00;99.90
23703;DHT22;12030;50.376;8.762;2022-10-15T04:23:07;15.00;99.90
23703;DHT22;12030;50.376;8.762;2022-10-15T04:25:33;15.00;99.90
23703;DHT22;12030;50.376;8.762;2022-10-15T04:28:01;15.00;99.90
23703;DHT22;12030;50.376;8.762;2022-10-15T04:30:26;14.90;99.90
23703;DHT22;12030;50.376;8.762;2022-10-15T04:32:52;15.00;99.90
23703;DHT22;12030;50.376;8.762;2022-10-15T04:35:18;15.00;99.90
23703;DHT22;12030;50.376;8.762;2022-10-15T04:37:43;15.00;99.90
23703;DHT22;12030;50.376;8.762;2022-10-15T04:40:09;15.00;99.90
23703;DHT22;12030;50.376;8.762;2022-10-15T04:42:35;15.00;99.90
23703;DHT22;12030;50.376;8.762;2022-10-15T04:45:00;15.00;99.90
23703;DHT22;12030;50.376;8.762;2022-10-15T04:47:26;15.00;99.90
23703;DHT22;12030;50.376;8.762;2022-10-15T04:49:52;15.00;99.90
23703;DHT22;12030;50.376;8.762;2022-10-15T04:52:17;14.90;99.90
23703;DHT22;12030;50.376;8.762;2022-10-15T04:54:43;14.90;99.90
23703;DHT22;12030;50.376;8.762;2022-10-15T04:57:08;14.90;99.90
23703;DHT22;12030;50.376;8.762;2022-10-15T04:59:34;14.90;99.90
23703;DHT22;12030;50.376;8.762;2022-10-15T05:01:59;14.90;99.90
23703;DHT22;12030;50.376;8.762;2022-10-15T05:04:25;14.90;99.90
23703;DHT22;12030;50.376;8.762;2022-10-15T05:06:50;14.90;99.90
23703;DHT22;12030;50.376;8.762;2022-10-15T05:09:16;14.90;99.90
23703;DHT22;12030;50.376;8.762;2022-10-15T05:11:41;14.90;99.90
23703;DHT22;12030;50.376;8.762;2022-10-15T05:14:07;14.90;99.90
23703;DHT22;12030;50.376;8.762;2022-10-15T05:16:33;15.00;99.90
23703;DHT22;12030;50.376;8.762;2022-10-15T05:19:04;14.90;99.90
23703;DHT22;12030;50.376;8.762;2022-10-15T05:21:30;14.90;99.90
23703;DHT22;12030;50.376;8.762;2022-10-15T05:23:57;14.90;99.90
23703;DHT22;12030;50.376;8.762;2022-10-15T05:26:24;14.90;99.90
23703;DHT22;12030;50.376;8.762;2022-10-15T05:28:51;14.90;99.90
23703;DHT22;12030;50.376;8.762;2022-10-15T05:31:19;14.90;99.90
23703;DHT22;12030;50.376;8.762;2022-10-15T05:33:46;14.80;99.90
23703;DHT22;12030;50.376;8.762;2022-10-15T05:36:18;14.80;99.90
23703;DHT22;12030;50.376;8.762;2022-10-15T05:38:55;14.80;99.90
23703;DHT22;12030;50.376;8.762;2022-10-15T05:41:21;14.90;99.90
23703;DHT22;12030;50.376;8.762;2022-10-15T05:43:48;14.90;99.90
23703;DHT22;12030;50.376;8.762;2022-10-15T05:46:15;14.90;99.90
23703;DHT22;12030;50.376;8.762;2022-10-15T05:48:40;14.80;99.90
23703;DHT22;12030;50.376;8.762;2022-10-15T05:51:11;14.90;99.90
23703;DHT22;12030;50.376;8.762;2022-10-15T05:53:37;14.80;99.90
23703;DHT22;12030;50.376;8.762;2022-10-15T05:56:03;14.80;99.90
23703;DHT22;12030;50.376;8.762;2022-10-15T05:58:29;14.90;99.90
23703;DHT22;12030;50.376;8.762;2022-10-15T06:00:58;14.90;99.90
23703;DHT22;12030;50.376;8.762;2022-10-15T06:03:24;14.90;99.90
23703;DHT22;12030;50.376;8.762;2022-10-15T06:05:51;14.80;99.90
23703;DHT22;12030;50.376;8.762;2022-10-15T06:08:16;14.80;99.90
23703;DHT22;12030;50.376;8.762;2022-10-15T06:10:42;14.80;99.90
23703;DHT22;12030;50.376;8.762;2022-10-15T06:13:09;14.80;99.90
23703;DHT22;12030;50.376;8.762;2022-10-15T06:15:38;14.80;99.90
23703;DHT22;12030;50.376;8.762;2022-10-15T06:18:04;14.90;99.90
23703;DHT22;12030;50.376;8.762;2022-10-15T06:20:29;14.90;99.90
23703;DHT22;12030;50.376;8.762;2022-10-15T06:23:01;14.90;99.90
23703;DHT22;12030;50.376;8.762;2022-10-15T06:25:27;14.90;99.90
23703;DHT22;12030;50.376;8.762;2022-10-15T06:27:53;15.00;99.90
23703;DHT22;12030;50.376;8.762;2022-10-15T06:30:19;15.00;99.90
23703;DHT22;12030;50.376;8.762;2022-10-15T06:32:49;15.00;99.90
23703;DHT22;12030;50.376;8.762;2022-10-15T06:35:15;15.00;99.90
23703;DHT22;12030;50.376;8.762;2022-10-15T06:37:41;15.00;99.90
23703;DHT22;12030;50.376;8.762;2022-10-15T06:40:07;15.10;99.90
23703;DHT22;12030;50.376;8.762;2022-10-15T06:42:33;15.10;99.90
23703;DHT22;12030;50.376;8.762;2022-10-15T06:44:59;15.10;99.90
23703;DHT22;12030;50.376;8.762;2022-10-15T06:47:24;15.20;99.90
23703;DHT22;12030;50.376;8.762;2022-10-15T06:49:50;15.10;99.90
23703;DHT22;12030;50.376;8.762;2022-10-15T06:52:15;15.20;99.90
23703;DHT22;12030;50.376;8.762;2022-10-15T06:54:41;15.20;99.90
23703;DHT22;12030;50.376;8.762;2022-10-15T06:57:06;15.20;99.90
23703;DHT22;12030;50.376;8.762;2022-10-15T06:59:32;15.20;99.90
23703;DHT22;12030;50.376;8.762;2022-10-15T07:01:57;15.20;99.90
23703;DHT22;12030;50.376;8.762;2022-10-15T07:04:23;15.20;99.90
23703;DHT22;12030;50.376;8.762;2022-10-15T07:06:49;15.30;99.90
23703;DHT22;12030;50.376;8.762;2022-10-15T07:09:14;15.20;99.90
23703;DHT22;12030;50.376;8.762;2022-10-15T07:11:40;15.30;99.90
23703;DHT22;12030;50.376;8.762;2022-10-15T07:14:06;15.30;99.90
23703;DHT22;12030;50.376;8.762;2022-10-15T07:16:31;15.30;99.90
23703;DHT22;12030;50.376;8.762;2022-10-15T07:18:57;15.30;99.90
23703;DHT22;12030;50.376;8.762;2022-10-15T07:21:22;15.30;99.90
23703;DHT22;12030;50.376;8.762;2022-10-15T07:23:49;15.30;99.90
23703;DHT22;12030;50.376;8.762;2022-10-15T07:26:14;15.30;99.90
23703;DHT22;12030;50.376;8.762;2022-10-15T07:28:40;15.30;99.90
23703;DHT22;12030;50.376;8.762;2022-10-15T07:31:06;15.30;99.90
23703;DHT22;12030;50.376;8.762;2022-10-15T07:33:32;15.40;99.90
23703;DHT22;12030;50.376;8.762;2022-10-15T07:36:02;15.40;99.90
23703;DHT22;12030;50.376;8.762;2022-10-15T07:38:28;15.30;99.90
23703;DHT22;12030;50.376;8.762;2022-10-15T07:40:57;15.30;99.90
23703;DHT22;12030;50.376;8.762;2022-10-15T07:43:23;15.30;99.90
23703;DHT22;12030;50.376;8.762;2022-10-15T07:45:48;15.30;99.90
23703;DHT22;12030;50.376;8.762;2022-10-15T07:48:14;15.40;99.90
23703;DHT22;12030;50.376;8.762;2022-10-15T07:50:40;15.40;99.90
23703;DHT22;12030;50.376;8.762;2022-10-15T07:53:05;15.40;99.90
23703;DHT22;12030;50.376;8.762;2022-10-15T07:55:31;15.50;99.90
23703;DHT22;12030;50.376;8.762;2022-10-15T07:57:57;15.50;99.90
23703;DHT22;12030;50.376;8.762;2022-10-15T08:00:23;15.60;99.90
23703;DHT22;12030;50.376;8.762;2022-10-15T08:02:49;15.60;99.90
23703;DHT22;12030;50.376;8.762;2022-10-15T08:05:14;15.60;99.90
23703;DHT22;12030;50.376;8.762;2022-10-15T08:07:40;15.70;99.90
23703;DHT22;12030;50.376;8.762;2022-10-15T08:10:07;15.70;99.90
23703;DHT22;12030;50.376;8.762;2022-10-15T08:12:32;15.80;99.90
23703;DHT22;12030;50.376;8.762;2022-10-15T08:14:58;15.80;99.90
23703;DHT22;12030;50.376;8.762;2022-10-15T08:17:23;15.80;99.90
23703;DHT22;12030;50.376;8.762;2022-10-15T08:19:49;15.80;99.90
23703;DHT22;12030;50.376;8.762;2022-10-15T08:22:14;15.90;99.90
23703;DHT22;12030;50.376;8.762;2022-10-15T08:24:40;15.90;99.90
23703;DHT22;12030;50.376;8.762;2022-10-15T08:27:05;15.90;99.90
23703;DHT22;12030;50.376;8.762;2022-10-15T08:29:31;15.90;99.90
23703;DHT22;12030;50.376;8.762;2022-10-15T08:31:57;15.90;99.90
23703;DHT22;12030;50.376;8.762;2022-10-15T08:34:23;15.90;99.90
23703;DHT22;12030;50.376;8.762;2022-10-15T08:36:48;16.00;99.90
23703;DHT22;12030;50.376;8.762;2022-10-15T08:39:14;16.00;99.90
23703;DHT22;12030;50.376;8.762;2022-10-15T08:41:52;16.10;99.90
23703;DHT22;12030;50.376;8.762;2022-10-15T08:44:42;16.20;99.90
23703;DHT22;12030;50.376;8.762;2022-10-15T08:47:33;16.20;99.90
23703;DHT22;12030;50.376;8.762;2022-10-15T08:50:03;16.30;99.90
23703;DHT22;12030;50.376;8.762;2022-10-15T08:52:46;16.30;99.90
23703;DHT22;12030;50.376;8.762;2022-10-15T08:55:15;16.40;99.90
23703;DHT22;12030;50.376;8.762;2022-10-15T09:00:49;16.50;99.90
23703;DHT22;12030;50.376;8.762;2022-10-15T09:09:27;16.60;99.90
23703;DHT22;12030;50.376;8.762;2022-10-15T09:12:15;16.60;99.90
23703;DHT22;12030;50.376;8.762;2022-10-15T09:14:44;16.70;99.90
23703;DHT22;12030;50.376;8.762;2022-10-15T09:17:20;16.70;99.90
23703;DHT22;12030;50.376;8.762;2022-10-15T09:19:50;16.70;99.90
23703;DHT22;12030;50.376;8.762;2022-10-15T09:22:18;16.70;99.90
23703;DHT22;12030;50.376;8.762;2022-10-15T09:24:47;16.60;99.90
23703;DHT22;12030;50.376;8.762;2022-10-15T09:27:33;16.60;99.90
23703;DHT22;12030;50.376;8.762;2022-10-15T09:32:42;16.50;99.90
23703;DHT22;12030;50.376;8.762;2022-10-15T09:35:23;16.50;99.90
23703;DHT22;12030;50.376;8.762;2022-10-15T09:38:15;16.50;99.90
23703;DHT22;12030;50.376;8.762;2022-10-15T09:43:50;16.60;99.90
23703;DHT22;12030;50.376;8.762;2022-10-15T09:46:16;16.60;99.90
23703;DHT22;12030;50.376;8.762;2022-10-15T09:48:46;16.60;99.90
23703;DHT22;12030;50.376;8.762;2022-10-15T09:51:35;16.60;99.90
23703;DHT22;12030;50.376;8.762;2022-10-15T09:54:19;16.70;99.90
23703;DHT22;12030;50.376;8.762;2022-10-15T09:56:56;16.80;99.90
23703;DHT22;12030;50.376;8.762;2022-10-15T09:59:23;17.00;99.90
23703;DHT22;12030;50.376;8.762;2022-10-15T10:01:58;17.10;99.90
23703;DHT22;12030;50.376;8.762;2022-10-15T10:04:30;17.20;99.90
23703;DHT22;12030;50.376;8.762;2022-10-15T10:06:59;17.30;99.90
23703;DHT22;12030;50.376;8.762;2022-10-15T10:09:53;17.40;99.90
23703;DHT22;12030;50.376;8.762;2022-10-15T10:12:26;17.50;99.90
23703;DHT22;12030;50.376;8.762;2022-10-15T10:14:59;17.50;99.90
23703;DHT22;12030;50.376;8.762;2022-10-15T10:17:28;17.50;99.90
23703;DHT22;12030;50.376;8.762;2022-10-15T10:22:58;17.60;99.90
23703;DHT22;12030;50.376;8.762;2022-10-15T10:25:39;17.50;99.90
23703;DHT22;12030;50.376;8.762;2022-10-15T10:33:28;17.40;99.90
23703;DHT22;12030;50.376;8.762;2022-10-15T10:35:56;17.50;99.90
23703;DHT22;12030;50.376;8.762;2022-10-15T10:38:31;17.60;99.90
23703;DHT22;12030;50.376;8.762;2022-10-15T10:41:00;17.60;99.90
23703;DHT22;12030;50.376;8.762;2022-10-15T10:43:39;17.70;99.90
23703;DHT22;12030;50.376;8.762;2022-10-15T10:48:46;17.80;99.90
23703;DHT22;12030;50.376;8.762;2022-10-15T10:51:20;17.80;99.90
23703;DHT22;12030;50.376;8.762;2022-10-15T10:53:58;17.80;99.90
23703;DHT22;12030;50.376;8.762;2022-10-15T10:58:57;17.90;99.90
23703;DHT22;12030;50.376;8.762;2022-10-15T11:01:24;17.90;99.90
23703;DHT22;12030;50.376;8.762;2022-10-15T11:03:49;17.80;99.90
23703;DHT22;12030;50.376;8.762;2022-10-15T11:06:40;17.80;99.90
23703;DHT22;12030;50.376;8.762;2022-10-15T11:14:48;17.90;99.90
23703;DHT22;12030;50.376;8.762;2022-10-15T11:17:38;18.00;99.90
23703;DHT22;12030;50.376;8.762;2022-10-15T11:20:23;18.00;99.90
23703;DHT22;12030;50.376;8.762;2022-10-15T11:31:31;18.10;99.90
23703;DHT22;12030;50.376;8.762;2022-10-15T11:34:48;18.20;99.90
23703;DHT22;12030;50.376;8.762;2022-10-15T11:42:57;18.20;99.90
23703;DHT22;12030;50.376;8.762;2022-10-15T11:47:57;18.00;99.90
23703;DHT22;12030;50.376;8.762;2022-10-15T11:50:42;18.20;99.90
23703;DHT22;12030;50.376;8.762;2022-10-15T11:53:33;18.30;99.90
23703;DHT22;12030;50.376;8.762;2022-10-15T11:56:13;18.50;99.90
23703;DHT22;12030;50.376;8.762;2022-10-15T11:58:51;18.60;99.90
23703;DHT22;12030;50.376;8.762;2022-10-15T12:04:17;18.60;99.90
23703;DHT22;12030;50.376;8.762;2022-10-15T12:06:47;18.80;99.90
23703;DHT22;12030;50.376;8.762;2022-10-15T12:09:17;18.60;99.90
23703;DHT22;12030;50.376;8.762;2022-10-15T12:15:03;18.50;99.90
23703;DHT22;12030;50.376;8.762;2022-10-15T12:17:39;18.50;99.90
23703;DHT22;12030;50.376;8.762;2022-10-15T12:20:10;18.50;99.90
23703;DHT22;12030;50.376;8.762;2022-10-15T12:30:40;18.70;99.90
23703;DHT22;12030;50.376;8.762;2022-10-15T12:33:52;18.60;99.90
23703;DHT22;12030;50.376;8.762;2022-10-15T12:36:26;18.80;99.90
23703;DHT22;12030;50.376;8.762;2022-10-15T12:41:37;18.80;99.90
23703;DHT22;12030;50.376;8.762;2022-10-15T12:44:28;18.80;99.90
23703;DHT22;12030;50.376;8.762;2022-10-15T12:46:55;18.80;99.90
23703;DHT22;12030;50.376;8.762;2022-10-15T12:51:57;18.70;99.90
23703;DHT22;12030;50.376;8.762;2022-10-15T12:54:40;18.70;99.90
23703;DHT22;12030;50.376;8.762;2022-10-15T13:00:34;18.60;99.90
23703;DHT22;12030;50.376;8.762;2022-10-15T13:03:22;18.50;99.90
23703;DHT22;12030;50.376;8.762;2022-10-15T13:05:50;18.50;99.90
23703;DHT22;12030;50.376;8.762;2022-10-15T13:08:21;18.40;99.90
23703;DHT22;12030;50.376;8.762;2022-10-15T13:10:53;18.40;99.90
23703;DHT22;12030;50.376;8.762;2022-10-15T13:13:23;18.40;99.90
23703;DHT22;12030;50.376;8.762;2022-10-15T13:16:05;18.30;99.90
23703;DHT22;12030;50.376;8.762;2022-10-15T13:18:32;18.30;99.90
23703;DHT22;12030;50.376;8.762;2022-10-15T13:20:58;18.30;99.90
23703;DHT22;12030;50.376;8.762;2022-10-15T13:23:33;18.20;99.90
23703;DHT22;12030;50.376;8.762;2022-10-15T13:26:12;18.10;99.90
23703;DHT22;12030;50.376;8.762;2022-10-15T13:28:41;18.10;99.90
23703;DHT22;12030;50.376;8.762;2022-10-15T13:31:18;17.90;99.90
23703;DHT22;12030;50.376;8.762;2022-10-15T13:33:48;17.90;99.90
23703;DHT22;12030;50.376;8.762;2022-10-15T13:36:32;17.90;99.90
23703;DHT22;12030;50.376;8.762;2022-10-15T13:39:07;17.80;99.90
23703;DHT22;12030;50.376;8.762;2022-10-15T13:41:44;17.90;99.90
23703;DHT22;12030;50.376;8.762;2022-10-15T13:44:23;17.80;99.90
23703;DHT22;12030;50.376;8.762;2022-10-15T13:46:49;17.80;99.90
23703;DHT22;12030;50.376;8.762;2022-10-15T13:49:17;17.70;99.90
23703;DHT22;12030;50.376;8.762;2022-10-15T13:51:46;17.60;99.90
23703;DHT22;12030;50.376;8.762;2022-10-15T13:54:20;17.60;99.90
23703;DHT22;12030;50.376;8.762;2022-10-15T13:56:55;17.50;99.90
23703;DHT22;12030;50.376;8.762;2022-10-15T13:59:23;17.50;99.90
23703;DHT22;12030;50.376;8.762;2022-10-15T14:01:56;17.50;99.90
23703;DHT22;12030;50.376;8.762;2022-10-15T14:04:26;17.60;99.90
23703;DHT22;12030;50.376;8.762;2022-10-15T14:07:17;17.60;99.90
23703;DHT22;12030;50.376;8.762;2022-10-15T14:09:45;17.70;99.90
23703;DHT22;12030;50.376;8.762;2022-10-15T14:12:11;17.70;99.90
23703;DHT22;12030;50.376;8.762;2022-10-15T14:14:46;17.60;99.90
23703;DHT22;12030;50.376;8.762;2022-10-15T14:19:51;17.60;99.90
23703;DHT22;12030;50.376;8.762;2022-10-15T14:22:19;17.60;99.90
23703;DHT22;12030;50.376;8.762;2022-10-15T14:24:48;17.60;99.90
23703;DHT22;12030;50.376;8.762;2022-10-15T14:27:19;17.60;99.90
23703;DHT22;12030;50.376;8.762;2022-10-15T14:29:47;17.70;99.90
23703;DHT22;12030;50.376;8.762;2022-10-15T14:32:46;17.70;99.90
23703;DHT22;12030;50.376;8.762;2022-10-15T14:35:45;17.70;99.90
23703;DHT22;12030;50.376;8.762;2022-10-15T14:40:36;17.70;99.90
23703;DHT22;12030;50.376;8.762;2022-10-15T14:43:12;17.70;99.90
23703;DHT22;12030;50.376;8.762;2022-10-15T14:45:52;17.70;99.90
23703;DHT22;12030;50.376;8.762;2022-10-15T14:48:24;17.80;99.90
23703;DHT22;12030;50.376;8.762;2022-10-15T14:50:50;17.70;99.90
23703;DHT22;12030;50.376;8.762;2022-10-15T14:53:31;17.80;99.90
23703;DHT22;12030;50.376;8.762;2022-10-15T14:56:06;17.80;99.90
23703;DHT22;12030;50.376;8.762;2022-10-15T14:58:36;17.90;99.90
23703;DHT22;12030;50.376;8.762;2022-10-15T15:01:04;17.80;99.90
23703;DHT22;12030;50.376;8.762;2022-10-15T15:03:41;17.80;99.90
23703;DHT22;12030;50.376;8.762;2022-10-15T15:06:08;17.80;99.90
23703;DHT22;12030;50.376;8.762;2022-10-15T15:08:34;17.80;99.90
23703;DHT22;12030;50.376;8.762;2022-10-15T15:11:01;17.70;99.90
23703;DHT22;12030;50.376;8.762;2022-10-15T15:13:29;17.60;99.90
23703;DHT22;12030;50.376;8.762;2022-10-15T15:15:55;17.70;99.90
23703;DHT22;12030;50.376;8.762;2022-10-15T15:18:21;17.80;99.90
23703;DHT22;12030;50.376;8.762;2022-10-15T15:20:48;17.70;99.90
23703;DHT22;12030;50.376;8.762;2022-10-15T15:23:20;17.70;99.90
23703;DHT22;12030;50.376;8.762;2022-10-15T15:25:46;17.60;99.90
23703;DHT22;12030;50.376;8.762;2022-10-15T15:28:17;17.60;99.90
23703;DHT22;12030;50.376;8.762;2022-10-15T15:30:48;17.30;99.90
23703;DHT22;12030;50.376;8.762;2022-10-15T15:33:15;17.60;99.90
23703;DHT22;12030;50.376;8.762;2022-10-15T15:35:45;17.60;99.90
23703;DHT22;12030;50.376;8.762;2022-10-15T15:38:20;17.60;99.90
23703;DHT22;12030;50.376;8.762;2022-10-15T15:40:46;17.50;99.90
23703;DHT22;12030;50.376;8.762;2022-10-15T15:43:13;17.50;99.90
23703;DHT22;12030;50.376;8.762;2022-10-15T15:45:40;17.30;99.90
23703;DHT22;12030;50.376;8.762;2022-10-15T15:48:06;17.40;99.90
23703;DHT22;12030;50.376;8.762;2022-10-15T15:50:31;17.30;99.90
23703;DHT22;12030;50.376;8.762;2022-10-15T15:52:57;17.30;99.90
23703;DHT22;12030;50.376;8.762;2022-10-15T15:55:23;17.20;99.90
23703;DHT22;12030;50.376;8.762;2022-10-15T15:57:48;17.30;99.90
23703;DHT22;12030;50.376;8.762;2022-10-15T16:00:14;17.30;99.90
23703;DHT22;12030;50.376;8.762;2022-10-15T16:02:40;17.30;99.90
23703;DHT22;12030;50.376;8.762;2022-10-15T16:05:07;17.20;99.90
23703;DHT22;12030;50.376;8.762;2022-10-15T16:07:35;17.20;99.90
23703;DHT22;12030;50.376;8.762;2022-10-15T16:10:00;17.20;99.90
23703;DHT22;12030;50.376;8.762;2022-10-15T16:12:26;17.20;99.90
23703;DHT22;12030;50.376;8.762;2022-10-15T16:14:52;17.20;99.90
23703;DHT22;12030;50.376;8.762;2022-10-15T16:17:17;17.10;99.90
23703;DHT22;12030;50.376;8.762;2022-10-15T16:19:43;17.10;99.90
23703;DHT22;12030;50.376;8.762;2022-10-15T16:22:08;17.10;99.90
23703;DHT22;12030;50.376;8.762;2022-10-15T16:24:34;17.00;99.90
23703;DHT22;12030;50.376;8.762;2022-10-15T16:27:00;17.00;99.90
23703;DHT22;12030;50.376;8.762;2022-10-15T16:29:26;17.00;99.90
23703;DHT22;12030;50.376;8.762;2022-10-15T16:31:51;17.00;99.90
23703;DHT22;12030;50.376;8.762;2022-10-15T16:34:17;17.00;99.90
23703;DHT22;12030;50.376;8.762;2022-10-15T16:36:43;16.90;99.90
23703;DHT22;12030;50.376;8.762;2022-10-15T16:39:08;16.80;99.90
23703;DHT22;12030;50.376;8.762;2022-10-15T16:41:34;16.80;99.90
23703;DHT22;12030;50.376;8.762;2022-10-15T16:43:59;16.80;99.90
23703;DHT22;12030;50.376;8.762;2022-10-15T16:46:25;16.70;99.90
23703;DHT22;12030;50.376;8.762;2022-10-15T16:48:55;16.70;99.90
23703;DHT22;12030;50.376;8.762;2022-10-15T16:51:21;16.70;99.90
23703;DHT22;12030;50.376;8.762;2022-10-15T16:53:48;16.70;99.90
23703;DHT22;12030;50.376;8.762;2022-10-15T16:56:25;16.60;99.90
23703;DHT22;12030;50.376;8.762;2022-10-15T16:58:51;16.60;99.90
23703;DHT22;12030;50.376;8.762;2022-10-15T17:01:25;16.60;99.90
23703;DHT22;12030;50.376;8.762;2022-10-15T17:03:52;16.60;99.90
23703;DHT22;12030;50.376;8.762;2022-10-15T17:06:20;16.60;99.90
23703;DHT22;12030;50.376;8.762;2022-10-15T17:08:48;16.50;99.90
23703;DHT22;12030;50.376;8.762;2022-10-15T17:11:32;16.60;99.90
23703;DHT22;12030;50.376;8.762;2022-10-15T17:14:01;16.60;99.90
23703;DHT22;12030;50.376;8.762;2022-10-15T17:16:32;16.60;99.90
23703;DHT22;12030;50.376;8.762;2022-10-15T17:18:58;16.50;99.90
23703;DHT22;12030;50.376;8.762;2022-10-15T17:21:26;16.50;99.90
23703;DHT22;12030;50.376;8.762;2022-10-15T17:23:53;16.50;99.90
23703;DHT22;12030;50.376;8.762;2022-10-15T17:26:22;16.50;99.90
23703;DHT22;12030;50.376;8.762;2022-10-15T17:28:49;16.60;99.90
23703;DHT22;12030;50.376;8.762;2022-10-15T17:31:18;16.50;99.90
23703;DHT22;12030;50.376;8.762;2022-10-15T17:33:44;16.50;99.90
23703;DHT22;12030;50.376;8.762;2022-10-15T17:36:11;16.50;99.90